sensor_id;sensor_type;location;lat;lon;timestamp;P1;durP1;ratioP1;P2;durP2;ratioP2
60847;SDS011;46681;47.696;9.140;2024-02-04T00:02:22;2.33;;;2.23;;
60847;SDS011;46681;47.696;9.140;2024-02-04T00:04:47;2.67;;;2.47;;
60847;SDS011;46681;47.696;9.140;2024-02-04T00:07:19;2.90;;;2.70;;
60847;SDS011;46681;47.696;9.140;2024-02-04T00:09:48;2.17;;;2.07;;
60847;SDS011;46681;47.696;9.140;2024-02-04T00:12:16;2.20;;;2.10;;
60847;SDS011;46681;47.696;9.140;2024-02-04T00:14:48;2.30;;;2.20;;
60847;SDS011;46681;47.696;9.140;2024-02-04T00:17:17;2.47;;;2.37;;
60847;SDS011;46681;47.696;9.140;2024-02-04T00:19:43;2.80;;;2.60;;
60847;SDS011;46681;47.696;9.140;2024-02-04T00:22:08;2.60;;;2.40;;
60847;SDS011;46681;47.696;9.140;2024-02-04T00:24:48;2.43;;;2.33;;
60847;SDS011;46681;47.696;9.140;2024-02-04T00:27:14;2.50;;;2.40;;
60847;SDS011;46681;47.696;9.140;2024-02-04T00:29:40;2.80;;;2.70;;
60847;SDS011;46681;47.696;9.140;2024-02-04T00:32:05;2.87;;;2.70;;
60847;SDS011;46681;47.696;9.140;2024-02-04T00:34:31;2.83;;;2.63;;
60847;SDS011;46681;47.696;9.140;2024-02-04T00:36:59;2.73;;;2.50;;
60847;SDS011;46681;47.696;9.140;2024-02-04T00:39:24;2.70;;;2.50;;
60847;SDS011;46681;47.696;9.140;2024-02-04T00:41:53;2.40;;;2.20;;
60847;SDS011;46681;47.696;9.140;2024-02-04T00:44:25;2.20;;;2.10;;
60847;SDS011;46681;47.696;9.140;2024-02-04T00:46:50;2.97;;;2.77;;
60847;SDS011;46681;47.696;9.140;2024-02-04T00:49:16;2.93;;;2.73;;
60847;SDS011;46681;47.696;9.140;2024-02-04T00:51:42;2.67;;;2.47;;
60847;SDS011;46681;47.696;9.140;2024-02-04T00:54:07;2.60;;;2.40;;
60847;SDS011;46681;47.696;9.140;2024-02-04T00:56:34;2.97;;;2.77;;
60847;SDS011;46681;47.696;9.140;2024-02-04T00:59:04;2.67;;;2.57;;
60847;SDS011;46681;47.696;9.140;2024-02-04T01:01:30;2.57;;;2.47;;
60847;SDS011;46681;47.696;9.140;2024-02-04T01:04:01;3.00;;;2.80;;
60847;SDS011;46681;47.696;9.140;2024-02-04T01:06:27;2.50;;;2.40;;
60847;SDS011;46681;47.696;9.140;2024-02-04T01:08:53;2.87;;;2.67;;
60847;SDS011;46681;47.696;9.140;2024-02-04T01:11:18;2.20;;;2.10;;
60847;SDS011;46681;47.696;9.140;2024-02-04T01:13:44;2.43;;;2.33;;
60847;SDS011;46681;47.696;9.140;2024-02-04T01:16:09;2.67;;;2.50;;
60847;SDS011;46681;47.696;9.140;2024-02-04T01:18:35;2.40;;;2.30;;
60847;SDS011;46681;47.696;9.140;2024-02-04T01:21:02;2.60;;;2.50;;
60847;SDS011;46681;47.696;9.140;2024-02-04T01:23:28;2.07;;;1.97;;
60847;SDS011;46681;47.696;9.140;2024-02-04T01:25:56;2.47;;;2.37;;
60847;SDS011;46681;47.696;9.140;2024-02-04T01:28:22;2.77;;;2.57;;
60847;SDS011;46681;47.696;9.140;2024-02-04T01:30:47;3.03;;;2.60;;
60847;SDS011;46681;47.696;9.140;2024-02-04T01:33:13;2.10;;;2.00;;
60847;SDS011;46681;47.696;9.140;2024-02-04T01:35:46;2.60;;;2.40;;
60847;SDS011;46681;47.696;9.140;2024-02-04T01:38:11;2.57;;;2.47;;
60847;SDS011;46681;47.696;9.140;2024-02-04T01:40:40;2.40;;;2.20;;
60847;SDS011;46681;47.696;9.140;2024-02-04T01:43:06;2.37;;;2.27;;
60847;SDS011;46681;47.696;9.140;2024-02-04T01:45:32;2.37;;;2.27;;
60847;SDS011;46681;47.696;9.140;2024-02-04T01:47:57;2.70;;;2.50;;
60847;SDS011;46681;47.696;9.140;2024-02-04T01:50:23;2.03;;;1.93;;
60847;SDS011;46681;47.696;9.140;2024-02-04T01:52:49;2.50;;;2.40;;
60847;SDS011;46681;47.696;9.140;2024-02-04T01:55:20;2.37;;;2.27;;
60847;SDS011;46681;47.696;9.140;2024-02-04T01:57:47;2.27;;;2.13;;
60847;SDS011;46681;47.696;9.140;2024-02-04T02:00:13;2.30;;;2.20;;
60847;SDS011;46681;47.696;9.140;2024-02-04T02:02:39;2.07;;;1.77;;
60847;SDS011;46681;47.696;9.140;2024-02-04T02:05:10;1.77;;;1.77;;
60847;SDS011;46681;47.696;9.140;2024-02-04T02:07:36;2.00;;;1.90;;
60847;SDS011;46681;47.696;9.140;2024-02-04T02:10:02;1.90;;;1.80;;
60847;SDS011;46681;47.696;9.140;2024-02-04T02:12:33;1.63;;;1.60;;
60847;SDS011;46681;47.696;9.140;2024-02-04T02:15:27;1.93;;;1.83;;
60847;SDS011;46681;47.696;9.140;2024-02-04T02:18:14;1.53;;;1.53;;
60847;SDS011;46681;47.696;9.140;2024-02-04T02:21:34;1.87;;;1.77;;
60847;SDS011;46681;47.696;9.140;2024-02-04T02:23:53;1.80;;;1.70;;
60847;SDS011;46681;47.696;9.140;2024-02-04T02:26:27;1.57;;;1.57;;
60847;SDS011;46681;47.696;9.140;2024-02-04T02:28:54;1.40;;;1.40;;
60847;SDS011;46681;47.696;9.140;2024-02-04T02:31:19;1.43;;;1.40;;
60847;SDS011;46681;47.696;9.140;2024-02-04T02:33:45;1.63;;;1.60;;
60847;SDS011;46681;47.696;9.140;2024-02-04T02:36:13;1.43;;;1.37;;
60847;SDS011;46681;47.696;9.140;2024-02-04T02:41:16;2.40;;;1.57;;
60847;SDS011;46681;47.696;9.140;2024-02-04T02:43:43;1.47;;;1.37;;
60847;SDS011;46681;47.696;9.140;2024-02-04T02:46:13;1.33;;;1.33;;
60847;SDS011;46681;47.696;9.140;2024-02-04T02:48:39;1.20;;;1.20;;
60847;SDS011;46681;47.696;9.140;2024-02-04T02:51:05;1.50;;;1.50;;
60847;SDS011;46681;47.696;9.140;2024-02-04T02:53:31;1.73;;;1.40;;
60847;SDS011;46681;47.696;9.140;2024-02-04T02:55:57;1.40;;;1.40;;
60847;SDS011;46681;47.696;9.140;2024-02-04T02:58:22;1.53;;;1.53;;
60847;SDS011;46681;47.696;9.140;2024-02-04T03:00:48;1.60;;;1.57;;
60847;SDS011;46681;47.696;9.140;2024-02-04T03:03:13;1.80;;;1.70;;
60847;SDS011;46681;47.696;9.140;2024-02-04T03:05:39;1.90;;;1.80;;
60847;SDS011;46681;47.696;9.140;2024-02-04T03:08:06;1.70;;;1.60;;
60847;SDS011;46681;47.696;9.140;2024-02-04T03:10:32;1.63;;;1.57;;
60847;SDS011;46681;47.696;9.140;2024-02-04T03:12:58;1.67;;;1.60;;
60847;SDS011;46681;47.696;9.140;2024-02-04T03:15:23;1.60;;;1.60;;
60847;SDS011;46681;47.696;9.140;2024-02-04T03:17:49;1.50;;;1.40;;
60847;SDS011;46681;47.696;9.140;2024-02-04T03:20:17;1.90;;;1.80;;
60847;SDS011;46681;47.696;9.140;2024-02-04T03:22:42;1.70;;;1.60;;
60847;SDS011;46681;47.696;9.140;2024-02-04T03:25:08;1.40;;;1.40;;
60847;SDS011;46681;47.696;9.140;2024-02-04T03:27:34;1.80;;;1.70;;
60847;SDS011;46681;47.696;9.140;2024-02-04T03:30:00;1.57;;;1.50;;
60847;SDS011;46681;47.696;9.140;2024-02-04T03:32:25;1.73;;;1.63;;
60847;SDS011;46681;47.696;9.140;2024-02-04T03:34:51;1.80;;;1.70;;
60847;SDS011;46681;47.696;9.140;2024-02-04T03:37:16;1.50;;;1.50;;
60847;SDS011;46681;47.696;9.140;2024-02-04T03:39:42;1.43;;;1.43;;
60847;SDS011;46681;47.696;9.140;2024-02-04T03:42:07;1.70;;;1.60;;
60847;SDS011;46681;47.696;9.140;2024-02-04T03:44:33;1.90;;;1.80;;
60847;SDS011;46681;47.696;9.140;2024-02-04T03:46:58;1.93;;;1.83;;
60847;SDS011;46681;47.696;9.140;2024-02-04T03:49:24;1.80;;;1.70;;
60847;SDS011;46681;47.696;9.140;2024-02-04T03:51:49;2.00;;;1.90;;
60847;SDS011;46681;47.696;9.140;2024-02-04T03:54:15;1.67;;;1.63;;
60847;SDS011;46681;47.696;9.140;2024-02-04T03:56:41;1.97;;;1.87;;
60847;SDS011;46681;47.696;9.140;2024-02-04T03:59:13;1.43;;;1.43;;
60847;SDS011;46681;47.696;9.140;2024-02-04T04:01:39;2.07;;;1.97;;
60847;SDS011;46681;47.696;9.140;2024-02-04T04:04:04;2.00;;;1.90;;
60847;SDS011;46681;47.696;9.140;2024-02-04T04:06:30;1.57;;;1.57;;
60847;SDS011;46681;47.696;9.140;2024-02-04T04:08:56;1.63;;;1.63;;
60847;SDS011;46681;47.696;9.140;2024-02-04T04:11:21;2.10;;;2.00;;
60847;SDS011;46681;47.696;9.140;2024-02-04T04:13:49;1.73;;;1.63;;
60847;SDS011;46681;47.696;9.140;2024-02-04T04:16:20;2.43;;;2.33;;
60847;SDS011;46681;47.696;9.140;2024-02-04T04:18:50;2.00;;;1.90;;
60847;SDS011;46681;47.696;9.140;2024-02-04T04:21:15;1.77;;;1.70;;
60847;SDS011;46681;47.696;9.140;2024-02-04T04:23:41;1.50;;;1.50;;
60847;SDS011;46681;47.696;9.140;2024-02-04T04:26:06;1.80;;;1.70;;
60847;SDS011;46681;47.696;9.140;2024-02-04T04:28:32;1.80;;;1.70;;
60847;SDS011;46681;47.696;9.140;2024-02-04T04:30:57;1.50;;;1.40;;
60847;SDS011;46681;47.696;9.140;2024-02-04T04:33:23;1.40;;;1.30;;
60847;SDS011;46681;47.696;9.140;2024-02-04T04:35:48;1.30;;;1.30;;
60847;SDS011;46681;47.696;9.140;2024-02-04T04:38:14;1.30;;;1.30;;
60847;SDS011;46681;47.696;9.140;2024-02-04T04:40:39;1.43;;;1.33;;
60847;SDS011;46681;47.696;9.140;2024-02-04T04:43:07;1.23;;;1.23;;
60847;SDS011;46681;47.696;9.140;2024-02-04T04:45:33;1.10;;;1.10;;
60847;SDS011;46681;47.696;9.140;2024-02-04T04:47:58;1.10;;;1.10;;
60847;SDS011;46681;47.696;9.140;2024-02-04T04:50:24;1.20;;;1.20;;
60847;SDS011;46681;47.696;9.140;2024-02-04T04:52:50;1.27;;;1.27;;
60847;SDS011;46681;47.696;9.140;2024-02-04T04:55:16;1.40;;;1.30;;
60847;SDS011;46681;47.696;9.140;2024-02-04T04:57:41;1.13;;;1.13;;
60847;SDS011;46681;47.696;9.140;2024-02-04T05:00:07;1.97;;;1.47;;
60847;SDS011;46681;47.696;9.140;2024-02-04T05:02:33;0.90;;;0.90;;
60847;SDS011;46681;47.696;9.140;2024-02-04T05:04:58;1.03;;;1.03;;
60847;SDS011;46681;47.696;9.140;2024-02-04T05:07:24;1.00;;;1.00;;
60847;SDS011;46681;47.696;9.140;2024-02-04T05:09:49;1.70;;;1.33;;
60847;SDS011;46681;47.696;9.140;2024-02-04T05:12:15;1.07;;;1.07;;
60847;SDS011;46681;47.696;9.140;2024-02-04T05:14:41;1.63;;;0.80;;
60847;SDS011;46681;47.696;9.140;2024-02-04T05:17:09;1.03;;;1.03;;
60847;SDS011;46681;47.696;9.140;2024-02-04T05:19:35;1.00;;;1.00;;
60847;SDS011;46681;47.696;9.140;2024-02-04T05:22:01;1.27;;;1.17;;
60847;SDS011;46681;47.696;9.140;2024-02-04T05:24:27;0.93;;;0.93;;
60847;SDS011;46681;47.696;9.140;2024-02-04T05:26:53;1.10;;;1.10;;
60847;SDS011;46681;47.696;9.140;2024-02-04T05:29:22;1.00;;;1.00;;
60847;SDS011;46681;47.696;9.140;2024-02-04T05:31:47;0.90;;;0.90;;
60847;SDS011;46681;47.696;9.140;2024-02-04T05:34:13;1.00;;;1.00;;
60847;SDS011;46681;47.696;9.140;2024-02-04T05:36:39;1.70;;;0.90;;
60847;SDS011;46681;47.696;9.140;2024-02-04T05:39:15;1.43;;;1.10;;
60847;SDS011;46681;47.696;9.140;2024-02-04T05:41:41;0.90;;;0.90;;
60847;SDS011;46681;47.696;9.140;2024-02-04T05:44:06;1.37;;;1.03;;
60847;SDS011;46681;47.696;9.140;2024-02-04T05:46:33;2.53;;;0.90;;
60847;SDS011;46681;47.696;9.140;2024-02-04T05:48:59;1.27;;;0.97;;
60847;SDS011;46681;47.696;9.140;2024-02-04T05:51:24;0.70;;;0.70;;
60847;SDS011;46681;47.696;9.140;2024-02-04T05:53:50;1.13;;;0.90;;
60847;SDS011;46681;47.696;9.140;2024-02-04T05:56:15;0.80;;;0.80;;
60847;SDS011;46681;47.696;9.140;2024-02-04T05:58:41;0.77;;;0.77;;
60847;SDS011;46681;47.696;9.140;2024-02-04T06:01:09;0.83;;;0.83;;
60847;SDS011;46681;47.696;9.140;2024-02-04T06:03:35;2.63;;;0.80;;
60847;SDS011;46681;47.696;9.140;2024-02-04T06:06:00;0.73;;;0.73;;
60847;SDS011;46681;47.696;9.140;2024-02-04T06:08:27;1.43;;;0.73;;
60847;SDS011;46681;47.696;9.140;2024-02-04T06:10:53;0.80;;;0.80;;
60847;SDS011;46681;47.696;9.140;2024-02-04T06:13:18;0.90;;;0.90;;
60847;SDS011;46681;47.696;9.140;2024-02-04T06:15:49;1.00;;;1.00;;
60847;SDS011;46681;47.696;9.140;2024-02-04T06:18:14;1.17;;;0.80;;
60847;SDS011;46681;47.696;9.140;2024-02-04T06:20:40;0.80;;;0.80;;
60847;SDS011;46681;47.696;9.140;2024-02-04T06:23:06;0.90;;;0.90;;
60847;SDS011;46681;47.696;9.140;2024-02-04T06:25:31;1.00;;;1.00;;
60847;SDS011;46681;47.696;9.140;2024-02-04T06:27:57;0.90;;;0.90;;
60847;SDS011;46681;47.696;9.140;2024-02-04T06:30:22;1.10;;;1.10;;
60847;SDS011;46681;47.696;9.140;2024-02-04T06:32:48;0.73;;;0.73;;
60847;SDS011;46681;47.696;9.140;2024-02-04T06:35:13;0.97;;;0.97;;
60847;SDS011;46681;47.696;9.140;2024-02-04T06:37:42;0.90;;;0.90;;
60847;SDS011;46681;47.696;9.140;2024-02-04T06:40:11;1.27;;;1.07;;
60847;SDS011;46681;47.696;9.140;2024-02-04T06:42:37;1.70;;;1.00;;
60847;SDS011;46681;47.696;9.140;2024-02-04T06:45:04;1.30;;;1.20;;
60847;SDS011;46681;47.696;9.140;2024-02-04T06:47:31;0.80;;;0.80;;
60847;SDS011;46681;47.696;9.140;2024-02-04T06:49:57;0.80;;;0.80;;
60847;SDS011;46681;47.696;9.140;2024-02-04T06:52:26;0.90;;;0.90;;
60847;SDS011;46681;47.696;9.140;2024-02-04T06:54:52;0.90;;;0.90;;
60847;SDS011;46681;47.696;9.140;2024-02-04T06:57:17;1.17;;;1.07;;
60847;SDS011;46681;47.696;9.140;2024-02-04T06:59:43;0.90;;;0.90;;
60847;SDS011;46681;47.696;9.140;2024-02-04T07:02:11;1.20;;;1.10;;
60847;SDS011;46681;47.696;9.140;2024-02-04T07:04:39;1.73;;;1.07;;
60847;SDS011;46681;47.696;9.140;2024-02-04T07:07:07;0.83;;;0.83;;
60847;SDS011;46681;47.696;9.140;2024-02-04T07:09:32;1.10;;;1.00;;
60847;SDS011;46681;47.696;9.140;2024-02-04T07:11:58;1.80;;;1.00;;
60847;SDS011;46681;47.696;9.140;2024-02-04T07:14:23;1.00;;;1.00;;
60847;SDS011;46681;47.696;9.140;2024-02-04T07:16:49;1.00;;;1.00;;
60847;SDS011;46681;47.696;9.140;2024-02-04T07:19:14;1.27;;;1.00;;
60847;SDS011;46681;47.696;9.140;2024-02-04T07:21:40;2.67;;;0.90;;
60847;SDS011;46681;47.696;9.140;2024-02-04T07:24:05;0.83;;;0.83;;
60847;SDS011;46681;47.696;9.140;2024-02-04T07:26:31;1.20;;;1.20;;
60847;SDS011;46681;47.696;9.140;2024-02-04T07:28:56;1.10;;;1.10;;
60847;SDS011;46681;47.696;9.140;2024-02-04T07:31:22;1.17;;;1.00;;
60847;SDS011;46681;47.696;9.140;2024-02-04T07:33:47;1.50;;;1.27;;
60847;SDS011;46681;47.696;9.140;2024-02-04T07:36:15;1.23;;;1.23;;
60847;SDS011;46681;47.696;9.140;2024-02-04T07:38:41;2.27;;;1.20;;
60847;SDS011;46681;47.696;9.140;2024-02-04T07:41:09;1.40;;;1.30;;
60847;SDS011;46681;47.696;9.140;2024-02-04T07:43:41;5.90;;;1.30;;
60847;SDS011;46681;47.696;9.140;2024-02-04T07:46:09;2.73;;;1.33;;
60847;SDS011;46681;47.696;9.140;2024-02-04T07:48:37;2.40;;;1.50;;
60847;SDS011;46681;47.696;9.140;2024-02-04T07:51:03;10.97;;;1.50;;
60847;SDS011;46681;47.696;9.140;2024-02-04T07:53:30;4.57;;;1.57;;
60847;SDS011;46681;47.696;9.140;2024-02-04T07:55:56;1.47;;;1.37;;
60847;SDS011;46681;47.696;9.140;2024-02-04T07:58:23;2.87;;;1.40;;
60847;SDS011;46681;47.696;9.140;2024-02-04T08:00:50;1.50;;;1.40;;
60847;SDS011;46681;47.696;9.140;2024-02-04T08:03:23;1.50;;;1.40;;
60847;SDS011;46681;47.696;9.140;2024-02-04T08:05:50;1.80;;;1.27;;
60847;SDS011;46681;47.696;9.140;2024-02-04T08:08:15;1.80;;;1.63;;
60847;SDS011;46681;47.696;9.140;2024-02-04T08:10:41;3.50;;;1.63;;
60847;SDS011;46681;47.696;9.140;2024-02-04T08:13:07;2.07;;;1.60;;
60847;SDS011;46681;47.696;9.140;2024-02-04T08:15:33;1.43;;;1.20;;
60847;SDS011;46681;47.696;9.140;2024-02-04T08:18:01;2.17;;;1.37;;
60847;SDS011;46681;47.696;9.140;2024-02-04T08:20:28;2.63;;;1.40;;
60847;SDS011;46681;47.696;9.140;2024-02-04T08:22:54;2.00;;;1.50;;
60847;SDS011;46681;47.696;9.140;2024-02-04T08:25:20;1.67;;;1.57;;
60847;SDS011;46681;47.696;9.140;2024-02-04T08:27:46;2.47;;;1.47;;
60847;SDS011;46681;47.696;9.140;2024-02-04T08:30:15;1.67;;;1.57;;
60847;SDS011;46681;47.696;9.140;2024-02-04T08:32:40;1.87;;;1.77;;
60847;SDS011;46681;47.696;9.140;2024-02-04T08:35:06;1.53;;;1.40;;
60847;SDS011;46681;47.696;9.140;2024-02-04T08:37:35;1.20;;;1.20;;
60847;SDS011;46681;47.696;9.140;2024-02-04T08:40:02;2.87;;;1.00;;
60847;SDS011;46681;47.696;9.140;2024-02-04T08:42:27;2.20;;;1.53;;
60847;SDS011;46681;47.696;9.140;2024-02-04T08:45:35;4.37;;;1.20;;
60847;SDS011;46681;47.696;9.140;2024-02-04T08:48:02;3.97;;;1.40;;
60847;SDS011;46681;47.696;9.140;2024-02-04T08:50:28;1.50;;;1.17;;
60847;SDS011;46681;47.696;9.140;2024-02-04T08:52:56;1.73;;;1.53;;
60847;SDS011;46681;47.696;9.140;2024-02-04T08:55:24;1.50;;;1.40;;
60847;SDS011;46681;47.696;9.140;2024-02-04T08:57:51;3.50;;;1.00;;
60847;SDS011;46681;47.696;9.140;2024-02-04T09:00:17;1.30;;;1.20;;
60847;SDS011;46681;47.696;9.140;2024-02-04T09:02:44;1.43;;;1.33;;
60847;SDS011;46681;47.696;9.140;2024-02-04T09:05:11;1.23;;;1.23;;
60847;SDS011;46681;47.696;9.140;2024-02-04T09:07:41;1.40;;;1.30;;
60847;SDS011;46681;47.696;9.140;2024-02-04T09:10:09;1.60;;;1.50;;
60847;SDS011;46681;47.696;9.140;2024-02-04T09:12:36;3.27;;;1.60;;
60847;SDS011;46681;47.696;9.140;2024-02-04T09:15:01;1.77;;;1.67;;
60847;SDS011;46681;47.696;9.140;2024-02-04T09:17:32;1.60;;;1.50;;
60847;SDS011;46681;47.696;9.140;2024-02-04T09:19:59;3.23;;;1.60;;
60847;SDS011;46681;47.696;9.140;2024-02-04T09:22:29;2.43;;;1.50;;
60847;SDS011;46681;47.696;9.140;2024-02-04T09:24:54;1.90;;;1.80;;
60847;SDS011;46681;47.696;9.140;2024-02-04T09:27:20;1.90;;;1.70;;
60847;SDS011;46681;47.696;9.140;2024-02-04T09:29:45;1.57;;;1.47;;
60847;SDS011;46681;47.696;9.140;2024-02-04T09:32:13;1.80;;;1.70;;
60847;SDS011;46681;47.696;9.140;2024-02-04T09:34:43;2.73;;;1.80;;
60847;SDS011;46681;47.696;9.140;2024-02-04T09:37:12;1.50;;;1.50;;
60847;SDS011;46681;47.696;9.140;2024-02-04T09:39:39;1.53;;;1.43;;
60847;SDS011;46681;47.696;9.140;2024-02-04T09:42:06;1.60;;;1.23;;
60847;SDS011;46681;47.696;9.140;2024-02-04T09:44:36;1.50;;;1.40;;
60847;SDS011;46681;47.696;9.140;2024-02-04T09:47:04;1.23;;;1.13;;
60847;SDS011;46681;47.696;9.140;2024-02-04T09:49:32;1.47;;;1.37;;
60847;SDS011;46681;47.696;9.140;2024-02-04T09:52:08;1.63;;;1.30;;
60847;SDS011;46681;47.696;9.140;2024-02-04T09:54:39;1.27;;;1.17;;
60847;SDS011;46681;47.696;9.140;2024-02-04T09:57:19;1.40;;;1.30;;
60847;SDS011;46681;47.696;9.140;2024-02-04T09:59:49;1.83;;;1.13;;
60847;SDS011;46681;47.696;9.140;2024-02-04T10:02:18;1.13;;;1.07;;
60847;SDS011;46681;47.696;9.140;2024-02-04T10:04:45;0.93;;;0.93;;
60847;SDS011;46681;47.696;9.140;2024-02-04T10:07:11;1.60;;;1.10;;
60847;SDS011;46681;47.696;9.140;2024-02-04T10:09:40;3.23;;;1.03;;
60847;SDS011;46681;47.696;9.140;2024-02-04T10:12:05;2.77;;;1.33;;
60847;SDS011;46681;47.696;9.140;2024-02-04T10:14:34;1.50;;;1.17;;
60847;SDS011;46681;47.696;9.140;2024-02-04T10:17:08;3.53;;;1.40;;
60847;SDS011;46681;47.696;9.140;2024-02-04T10:19:36;1.67;;;1.03;;
60847;SDS011;46681;47.696;9.140;2024-02-04T10:22:09;3.00;;;1.20;;
60847;SDS011;46681;47.696;9.140;2024-02-04T10:24:35;3.67;;;1.30;;
60847;SDS011;46681;47.696;9.140;2024-02-04T10:27:01;1.90;;;1.00;;
60847;SDS011;46681;47.696;9.140;2024-02-04T10:29:31;1.17;;;1.07;;
60847;SDS011;46681;47.696;9.140;2024-02-04T10:31:58;1.33;;;1.10;;
60847;SDS011;46681;47.696;9.140;2024-02-04T10:34:28;1.77;;;1.10;;
60847;SDS011;46681;47.696;9.140;2024-02-04T10:36:54;3.20;;;1.10;;
60847;SDS011;46681;47.696;9.140;2024-02-04T10:39:20;1.33;;;1.17;;
60847;SDS011;46681;47.696;9.140;2024-02-04T10:41:49;2.77;;;1.07;;
60847;SDS011;46681;47.696;9.140;2024-02-04T10:44:35;0.97;;;0.97;;
60847;SDS011;46681;47.696;9.140;2024-02-04T10:47:06;2.00;;;1.40;;
60847;SDS011;46681;47.696;9.140;2024-02-04T10:49:38;1.90;;;0.93;;
60847;SDS011;46681;47.696;9.140;2024-02-04T10:52:10;3.23;;;1.30;;
60847;SDS011;46681;47.696;9.140;2024-02-04T10:54:49;1.87;;;1.10;;
60847;SDS011;46681;47.696;9.140;2024-02-04T10:57:20;1.47;;;1.00;;
60847;SDS011;46681;47.696;9.140;2024-02-04T10:59:54;3.03;;;1.00;;
60847;SDS011;46681;47.696;9.140;2024-02-04T11:02:38;3.03;;;1.23;;
60847;SDS011;46681;47.696;9.140;2024-02-04T11:05:07;1.13;;;1.13;;
60847;SDS011;46681;47.696;9.140;2024-02-04T11:07:36;0.90;;;0.90;;
60847;SDS011;46681;47.696;9.140;2024-02-04T11:10:05;1.00;;;0.90;;
60847;SDS011;46681;47.696;9.140;2024-02-04T11:12:33;1.80;;;1.07;;
60847;SDS011;46681;47.696;9.140;2024-02-04T11:15:07;1.07;;;0.77;;
60847;SDS011;46681;47.696;9.140;2024-02-04T11:26:09;0.70;;;0.70;;
60847;SDS011;46681;47.696;9.140;2024-02-04T11:28:38;1.87;;;0.90;;
60847;SDS011;46681;47.696;9.140;2024-02-04T11:31:17;1.00;;;0.90;;
60847;SDS011;46681;47.696;9.140;2024-02-04T11:33:45;1.17;;;0.60;;
60847;SDS011;46681;47.696;9.140;2024-02-04T11:36:16;0.70;;;0.60;;
60847;SDS011;46681;47.696;9.140;2024-02-04T11:38:47;1.10;;;1.10;;
60847;SDS011;46681;47.696;9.140;2024-02-04T11:41:21;1.03;;;0.70;;
60847;SDS011;46681;47.696;9.140;2024-02-04T11:43:53;1.40;;;1.00;;
60847;SDS011;46681;47.696;9.140;2024-02-04T11:46:23;1.03;;;0.90;;
60847;SDS011;46681;47.696;9.140;2024-02-04T11:48:59;0.80;;;0.80;;
60847;SDS011;46681;47.696;9.140;2024-02-04T11:51:25;0.97;;;0.90;;
60847;SDS011;46681;47.696;9.140;2024-02-04T11:53:54;0.80;;;0.80;;
60847;SDS011;46681;47.696;9.140;2024-02-04T11:56:23;0.77;;;0.77;;
60847;SDS011;46681;47.696;9.140;2024-02-04T11:58:52;3.90;;;0.90;;
60847;SDS011;46681;47.696;9.140;2024-02-04T12:01:21;0.80;;;0.80;;
60847;SDS011;46681;47.696;9.140;2024-02-04T12:03:49;0.87;;;0.87;;
60847;SDS011;46681;47.696;9.140;2024-02-04T12:06:21;0.90;;;0.80;;
60847;SDS011;46681;47.696;9.140;2024-02-04T12:08:47;2.03;;;0.80;;
60847;SDS011;46681;47.696;9.140;2024-02-04T12:11:16;0.70;;;0.70;;
60847;SDS011;46681;47.696;9.140;2024-02-04T12:13:42;0.77;;;0.77;;
60847;SDS011;46681;47.696;9.140;2024-02-04T12:16:11;0.70;;;0.70;;
60847;SDS011;46681;47.696;9.140;2024-02-04T12:18:48;0.87;;;0.80;;
60847;SDS011;46681;47.696;9.140;2024-02-04T12:21:15;1.00;;;1.00;;
60847;SDS011;46681;47.696;9.140;2024-02-04T12:23:44;1.03;;;0.70;;
60847;SDS011;46681;47.696;9.140;2024-02-04T12:26:12;1.27;;;0.90;;
60847;SDS011;46681;47.696;9.140;2024-02-04T12:28:38;2.50;;;0.90;;
60847;SDS011;46681;47.696;9.140;2024-02-04T12:31:07;0.80;;;0.80;;
60847;SDS011;46681;47.696;9.140;2024-02-04T12:33:53;2.33;;;1.00;;
60847;SDS011;46681;47.696;9.140;2024-02-04T12:36:25;1.47;;;0.93;;
60847;SDS011;46681;47.696;9.140;2024-02-04T12:38:57;0.90;;;0.90;;
60847;SDS011;46681;47.696;9.140;2024-02-04T12:41:31;2.13;;;0.80;;
60847;SDS011;46681;47.696;9.140;2024-02-04T12:44:00;0.80;;;0.80;;
60847;SDS011;46681;47.696;9.140;2024-02-04T12:46:32;1.10;;;1.00;;
60847;SDS011;46681;47.696;9.140;2024-02-04T12:49:04;1.67;;;1.20;;
60847;SDS011;46681;47.696;9.140;2024-02-04T12:51:35;1.80;;;0.90;;
60847;SDS011;46681;47.696;9.140;2024-02-04T12:54:48;0.90;;;0.90;;
60847;SDS011;46681;47.696;9.140;2024-02-04T12:57:24;1.33;;;0.83;;
60847;SDS011;46681;47.696;9.140;2024-02-04T13:00:26;1.60;;;0.90;;
60847;SDS011;46681;47.696;9.140;2024-02-04T13:03:01;2.93;;;1.03;;
60847;SDS011;46681;47.696;9.140;2024-02-04T13:05:46;1.57;;;0.90;;
60847;SDS011;46681;47.696;9.140;2024-02-04T13:08:36;1.40;;;1.00;;
60847;SDS011;46681;47.696;9.140;2024-02-04T13:11:19;1.67;;;1.10;;
60847;SDS011;46681;47.696;9.140;2024-02-04T13:13:50;2.03;;;1.10;;
60847;SDS011;46681;47.696;9.140;2024-02-04T13:16:37;1.10;;;1.00;;
60847;SDS011;46681;47.696;9.140;2024-02-04T13:19:16;0.80;;;0.80;;
60847;SDS011;46681;47.696;9.140;2024-02-04T13:21:59;0.97;;;0.80;;
60847;SDS011;46681;47.696;9.140;2024-02-04T13:24:54;2.53;;;1.13;;
60847;SDS011;46681;47.696;9.140;2024-02-04T13:27:22;1.20;;;1.07;;
60847;SDS011;46681;47.696;9.140;2024-02-04T13:29:56;1.07;;;0.90;;
60847;SDS011;46681;47.696;9.140;2024-02-04T13:32:46;1.17;;;1.03;;
60847;SDS011;46681;47.696;9.140;2024-02-04T13:35:13;0.93;;;0.93;;
60847;SDS011;46681;47.696;9.140;2024-02-04T13:37:45;1.00;;;1.00;;
60847;SDS011;46681;47.696;9.140;2024-02-04T13:40:23;1.10;;;1.00;;
60847;SDS011;46681;47.696;9.140;2024-02-04T13:42:53;3.07;;;1.00;;
60847;SDS011;46681;47.696;9.140;2024-02-04T13:45:26;1.33;;;1.10;;
60847;SDS011;46681;47.696;9.140;2024-02-04T13:48:17;1.20;;;1.10;;
60847;SDS011;46681;47.696;9.140;2024-02-04T13:50:44;2.13;;;1.20;;
60847;SDS011;46681;47.696;9.140;2024-02-04T13:53:11;1.77;;;1.20;;
60847;SDS011;46681;47.696;9.140;2024-02-04T13:55:44;2.60;;;1.03;;
60847;SDS011;46681;47.696;9.140;2024-02-04T13:58:13;2.67;;;1.23;;
60847;SDS011;46681;47.696;9.140;2024-02-04T14:03:24;3.53;;;1.00;;
60847;SDS011;46681;47.696;9.140;2024-02-04T14:06:00;2.00;;;1.17;;
60847;SDS011;46681;47.696;9.140;2024-02-04T14:08:41;3.33;;;1.30;;
60847;SDS011;46681;47.696;9.140;2024-02-04T14:11:20;2.90;;;1.47;;
60847;SDS011;46681;47.696;9.140;2024-02-04T14:13:48;2.50;;;1.30;;
60847;SDS011;46681;47.696;9.140;2024-02-04T14:16:41;1.27;;;1.20;;
60847;SDS011;46681;47.696;9.140;2024-02-04T14:19:08;2.37;;;1.30;;
60847;SDS011;46681;47.696;9.140;2024-02-04T14:21:47;2.23;;;1.00;;
60847;SDS011;46681;47.696;9.140;2024-02-04T14:24:19;3.17;;;1.43;;
60847;SDS011;46681;47.696;9.140;2024-02-04T14:27:01;3.40;;;1.70;;
60847;SDS011;46681;47.696;9.140;2024-02-04T14:29:26;2.73;;;1.80;;
60847;SDS011;46681;47.696;9.140;2024-02-04T14:32:01;2.37;;;1.57;;
60847;SDS011;46681;47.696;9.140;2024-02-04T14:34:45;2.40;;;1.50;;
60847;SDS011;46681;47.696;9.140;2024-02-04T14:37:12;2.07;;;1.50;;
60847;SDS011;46681;47.696;9.140;2024-02-04T14:39:40;3.17;;;1.67;;
60847;SDS011;46681;47.696;9.140;2024-02-04T14:42:19;1.60;;;1.30;;
60847;SDS011;46681;47.696;9.140;2024-02-04T14:45:11;1.70;;;1.20;;
60847;SDS011;46681;47.696;9.140;2024-02-04T14:47:55;2.67;;;1.43;;
60847;SDS011;46681;47.696;9.140;2024-02-04T14:50:44;2.03;;;1.50;;
60847;SDS011;46681;47.696;9.140;2024-02-04T14:53:09;2.30;;;1.87;;
60847;SDS011;46681;47.696;9.140;2024-02-04T14:55:38;4.60;;;2.00;;
60847;SDS011;46681;47.696;9.140;2024-02-04T14:58:10;8.47;;;2.67;;
60847;SDS011;46681;47.696;9.140;2024-02-04T15:00:44;5.23;;;1.80;;
60847;SDS011;46681;47.696;9.140;2024-02-04T15:03:20;5.90;;;2.07;;
60847;SDS011;46681;47.696;9.140;2024-02-04T15:05:52;4.83;;;2.07;;
60847;SDS011;46681;47.696;9.140;2024-02-04T15:08:19;4.70;;;1.90;;
60847;SDS011;46681;47.696;9.140;2024-02-04T15:10:47;2.20;;;2.00;;
60847;SDS011;46681;47.696;9.140;2024-02-04T15:13:32;5.30;;;2.40;;
60847;SDS011;46681;47.696;9.140;2024-02-04T15:16:03;3.27;;;1.90;;